createdAt,value
2022-08-20T00:00:02.132Z,50.910637
2022-08-20T00:01:02.575Z,50.910686
2022-08-20T00:02:02.176Z,50.910591
2022-08-20T00:03:02.101Z,50.910572
2022-08-20T00:04:02.094Z,50.910366
2022-08-20T00:05:02.083Z,50.910320
2022-08-20T00:06:02.083Z,50.910320
2022-08-20T00:07:02.089Z,50.910320
2022-08-20T00:08:02.055Z,50.910320
2022-08-20T00:09:02.038Z,50.909790
2022-08-20T00:10:02.035Z,50.910057
2022-08-20T00:11:02.022Z,50.910000
2022-08-20T00:12:02.032Z,50.909977
2022-08-20T00:13:02.003Z,50.910034
2022-08-20T00:14:01.999Z,50.910061
2022-08-20T00:15:01.990Z,50.910019
2022-08-20T00:16:01.982Z,50.910690
2022-08-20T00:17:01.987Z,50.910789
2022-08-20T00:18:01.958Z,50.910614
2022-08-20T00:19:01.947Z,50.910629
2022-08-20T00:20:01.938Z,50.910736
2022-08-20T00:21:01.918Z,50.910683
2022-08-20T00:22:01.936Z,50.910614
2022-08-20T00:23:01.911Z,50.910553
2022-08-20T00:24:01.897Z,50.910603
2022-08-20T00:25:01.899Z,50.910686
2022-08-20T00:26:01.877Z,50.910648
2022-08-20T00:27:01.872Z,50.910686
2022-08-20T00:28:01.864Z,50.910778
2022-08-20T00:29:01.846Z,50.910667
2022-08-20T00:30:01.840Z,50.910637
2022-08-20T00:31:01.825Z,50.910614
2022-08-20T00:32:01.833Z,50.910675
2022-08-20T00:33:01.811Z,50.910622
2022-08-20T00:34:01.796Z,50.910645
2022-08-20T00:35:01.787Z,50.910637
2022-08-20T00:36:01.775Z,50.910702
2022-08-20T00:37:01.790Z,50.910728
2022-08-20T00:38:01.984Z,50.910755
2022-08-20T00:39:01.749Z,50.910706
2022-08-20T00:40:01.892Z,50.910648
2022-08-20T00:41:01.736Z,50.910648
2022-08-20T00:42:01.714Z,50.910633
2022-08-20T00:43:02.015Z,50.910664
2022-08-20T00:44:01.701Z,50.910683
2022-08-20T00:45:01.684Z,50.910656
2022-08-20T00:46:01.738Z,50.910656
2022-08-20T00:47:01.668Z,50.910679
2022-08-20T00:48:01.672Z,50.910660
2022-08-20T00:49:01.799Z,50.910671
2022-08-20T00:50:01.629Z,50.910694
2022-08-20T00:51:01.628Z,50.910690
2022-08-20T00:52:01.611Z,50.910667
2022-08-20T00:53:01.618Z,50.910656
2022-08-20T00:54:01.746Z,50.910698
2022-08-20T00:55:01.594Z,50.910645
2022-08-20T00:56:01.573Z,50.910660
2022-08-20T00:57:01.577Z,50.910656
2022-08-20T00:58:02.149Z,50.910656
2022-08-20T00:59:01.549Z,50.910690
2022-08-20T01:00:01.536Z,50.910690
2022-08-20T01:01:01.539Z,50.910717
2022-08-20T01:02:01.546Z,50.910690
2022-08-20T01:03:01.523Z,50.910683
2022-08-20T01:04:01.616Z,50.910671
2022-08-20T01:05:01.480Z,50.910721
2022-08-20T01:06:01.468Z,50.910755
2022-08-20T01:07:01.542Z,50.910736
2022-08-20T01:08:01.467Z,50.910717
2022-08-20T01:09:01.458Z,50.910725
2022-08-20T01:10:01.462Z,50.910736
2022-08-20T01:11:01.427Z,50.910770
2022-08-20T01:12:01.413Z,50.910774
2022-08-20T01:13:01.452Z,50.910767
2022-08-20T01:14:01.391Z,50.910736
2022-08-20T01:15:01.403Z,50.910770
2022-08-20T01:16:01.399Z,50.910728
2022-08-20T01:17:01.360Z,50.910748
2022-08-20T01:18:01.377Z,50.910736
2022-08-20T01:19:01.352Z,50.910748
2022-08-20T01:20:01.337Z,50.910728
2022-08-20T01:21:01.332Z,50.910763
2022-08-20T01:22:01.464Z,50.910744
2022-08-20T01:23:01.326Z,50.910709
2022-08-20T01:24:01.291Z,50.910736
2022-08-20T01:25:01.291Z,50.910713
2022-08-20T01:26:01.275Z,50.910721
2022-08-20T01:27:01.273Z,50.910759
2022-08-20T01:28:01.479Z,50.910721
2022-08-20T01:29:01.250Z,50.910736
2022-08-20T01:30:01.234Z,50.910728
2022-08-20T01:31:01.473Z,50.910828
2022-08-20T01:32:01.223Z,50.910740
2022-08-20T01:33:01.227Z,50.910778
2022-08-20T01:34:01.199Z,50.910713
2022-08-20T01:35:01.191Z,50.910717
2022-08-20T01:36:01.178Z,50.910690
2022-08-20T01:37:01.166Z,50.910686
2022-08-20T01:38:01.168Z,50.910706
2022-08-20T01:39:01.150Z,50.910686
2022-08-20T01:40:01.196Z,50.910709
2022-08-20T01:41:01.134Z,50.910709
2022-08-20T01:42:01.111Z,50.910671
2022-08-20T01:43:01.123Z,50.910713
2022-08-20T01:44:01.096Z,50.910694
2022-08-20T01:45:01.905Z,50.910721
2022-08-20T01:46:01.079Z,50.910652
2022-08-20T01:47:01.065Z,50.910721
2022-08-20T01:48:01.165Z,50.910713
2022-08-20T01:49:01.052Z,50.910664
2022-08-20T01:50:01.035Z,50.910702
2022-08-20T01:51:01.027Z,50.910782
2022-08-20T01:52:01.019Z,50.910717
2022-08-20T01:53:01.026Z,50.910660
2022-08-20T01:54:01.001Z,50.910713
2022-08-20T01:55:00.991Z,50.910728
2022-08-20T01:56:01.023Z,50.910706
2022-08-20T01:57:00.978Z,50.910706
2022-08-20T01:58:00.973Z,50.910721
2022-08-20T01:59:00.958Z,50.910728
2022-08-20T02:00:00.938Z,50.910728
2022-08-20T02:01:00.933Z,50.910728
2022-08-20T02:02:00.964Z,50.910717
2022-08-20T02:03:00.924Z,50.910675
2022-08-20T02:04:00.904Z,50.910732
2022-08-20T02:05:00.895Z,50.910755
2022-08-20T02:06:00.932Z,50.910831
2022-08-20T02:07:00.871Z,50.910828
2022-08-20T02:08:00.876Z,50.910755
2022-08-20T02:09:00.877Z,50.910736
2022-08-20T02:10:00.842Z,50.910664
2022-08-20T02:11:00.851Z,50.910599
2022-08-20T02:12:00.825Z,50.910591
2022-08-20T02:13:00.835Z,50.910652
2022-08-20T02:14:00.801Z,50.910545
2022-08-20T02:15:00.801Z,50.910656
2022-08-20T02:16:00.787Z,50.910767
2022-08-20T02:17:00.818Z,50.910740
2022-08-20T02:18:00.777Z,50.910709
2022-08-20T02:19:00.755Z,50.910683
2022-08-20T02:20:00.799Z,50.910679
2022-08-20T02:21:00.736Z,50.910576
2022-08-20T02:22:00.728Z,50.910656
2022-08-20T02:23:00.732Z,50.910717
2022-08-20T02:24:00.700Z,50.910728
2022-08-20T02:25:00.697Z,50.910778
2022-08-20T02:26:00.683Z,50.910744
2022-08-20T02:27:00.673Z,50.910770
2022-08-20T02:28:00.678Z,50.910835
2022-08-20T02:29:01.232Z,50.910786
2022-08-20T02:30:00.687Z,50.910778
2022-08-20T02:31:00.639Z,50.910751
2022-08-20T02:32:32.770Z,50.910759
2022-08-20T02:33:01.633Z,50.910675
2022-08-20T02:34:21.689Z,50.910748
2022-08-20T02:35:01.621Z,50.910717
2022-08-20T02:36:00.587Z,50.910721
2022-08-20T02:37:00.580Z,50.910728
2022-08-20T02:38:00.589Z,50.910679
2022-08-20T02:39:00.563Z,50.910656
2022-08-20T02:40:00.723Z,50.910782
2022-08-20T02:41:00.543Z,50.910889
2022-08-20T02:42:00.524Z,50.910744
2022-08-20T02:43:00.597Z,50.910721
2022-08-20T02:44:00.512Z,50.910721
2022-08-20T02:45:00.498Z,50.910751
2022-08-20T02:46:00.484Z,50.910854
2022-08-20T02:47:00.493Z,50.910740
2022-08-20T02:48:00.482Z,50.910728
2022-08-20T02:49:00.461Z,50.910770
2022-08-20T02:50:00.444Z,50.910751
2022-08-20T02:51:00.443Z,50.910778
2022-08-20T02:52:00.442Z,50.910652
2022-08-20T02:53:00.435Z,50.910789
2022-08-20T02:54:00.409Z,50.910774
2022-08-20T02:55:00.401Z,50.910713
2022-08-20T02:56:00.390Z,50.910755
2022-08-20T02:57:00.377Z,50.910686
2022-08-20T02:58:00.612Z,50.910759
2022-08-20T02:59:00.363Z,50.910725
2022-08-20T03:00:00.357Z,50.910770
2022-08-20T03:01:00.369Z,50.910755
2022-08-20T03:02:01.156Z,50.910656
2022-08-20T03:03:00.337Z,50.910656
2022-08-20T03:04:00.310Z,50.910725
2022-08-20T03:05:00.311Z,50.910725
2022-08-20T03:06:00.283Z,50.910786
2022-08-20T03:07:00.282Z,50.910767
2022-08-20T03:08:00.282Z,50.910698
2022-08-20T03:09:00.274Z,50.910728
2022-08-20T03:10:00.254Z,50.910690
2022-08-20T03:11:00.244Z,50.910709
2022-08-20T03:12:00.229Z,50.910679
2022-08-20T03:13:00.342Z,50.910675
2022-08-20T03:14:00.232Z,50.910645
2022-08-20T03:15:00.218Z,50.910625
2022-08-20T03:16:00.193Z,50.910625
2022-08-20T03:17:00.178Z,50.910530
2022-08-20T03:18:00.185Z,50.910603
2022-08-20T03:19:00.157Z,50.910667
2022-08-20T03:20:00.172Z,50.910683
2022-08-20T03:21:00.145Z,50.910683
2022-08-20T03:22:00.149Z,50.910709
2022-08-20T03:23:00.193Z,50.910587
2022-08-20T03:24:00.114Z,50.910694
2022-08-20T03:25:00.107Z,50.910641
2022-08-20T03:26:00.091Z,50.910587
2022-08-20T03:27:00.087Z,50.910667
2022-08-20T03:28:00.264Z,50.910660
2022-08-20T03:29:00.066Z,50.910656
2022-08-20T03:30:00.052Z,50.910683
2022-08-20T03:31:00.042Z,50.910645
2022-08-20T03:32:00.031Z,50.910614
2022-08-20T03:33:00.040Z,50.910645
2022-08-20T03:34:00.007Z,50.910645
2022-08-20T03:35:00.006Z,50.910671
2022-08-20T03:35:59.990Z,50.910694
2022-08-20T03:36:59.978Z,50.910690
2022-08-20T03:37:59.988Z,50.910679
2022-08-20T03:38:59.972Z,50.910652
2022-08-20T03:39:59.995Z,50.910683
2022-08-20T03:40:59.948Z,50.910667
2022-08-20T03:41:59.935Z,50.910683
2022-08-20T03:42:59.941Z,50.910690
2022-08-20T03:43:59.909Z,50.910580
2022-08-20T03:44:59.904Z,50.910709
2022-08-20T03:45:59.890Z,50.910637
2022-08-20T03:46:59.879Z,50.910553
2022-08-20T03:47:59.876Z,50.910614
2022-08-20T03:49:00.788Z,50.910614
2022-08-20T03:49:59.846Z,50.910686
2022-08-20T03:50:59.842Z,50.910686
2022-08-20T03:51:59.828Z,50.910820
2022-08-20T03:52:59.838Z,50.910656
2022-08-20T03:53:59.809Z,50.910671
2022-08-20T03:54:59.807Z,50.910690
2022-08-20T03:56:02.370Z,50.910728
2022-08-20T03:56:59.781Z,50.910671
2022-08-20T03:57:59.788Z,50.910522
2022-08-20T03:58:59.769Z,50.910606
2022-08-20T03:59:59.746Z,50.910675
2022-08-20T04:00:59.779Z,50.910740
2022-08-20T04:01:59.783Z,50.910782
2022-08-20T04:02:59.720Z,50.910725
2022-08-20T04:03:59.728Z,50.910797
2022-08-20T04:04:59.704Z,50.910725
2022-08-20T04:05:59.695Z,50.910713
2022-08-20T04:06:59.683Z,50.910671
2022-08-20T04:08:03.174Z,50.910698
2022-08-20T04:08:59.666Z,50.910679
2022-08-20T04:09:59.646Z,50.910732
2022-08-20T04:10:59.685Z,50.910725
2022-08-20T04:11:59.631Z,50.910694
2022-08-20T04:12:59.635Z,50.910667
2022-08-20T04:13:59.613Z,50.910706
2022-08-20T04:14:59.608Z,50.910645
2022-08-20T04:15:59.594Z,50.910652
2022-08-20T04:16:59.586Z,50.910694
2022-08-20T04:17:59.589Z,50.910683
2022-08-20T04:19:02.545Z,50.910717
2022-08-20T04:19:59.549Z,50.910702
2022-08-20T04:20:59.539Z,50.910671
2022-08-20T04:21:59.529Z,50.910690
2022-08-20T04:22:59.810Z,50.910694
2022-08-20T04:23:59.512Z,50.910675
2022-08-20T04:24:59.502Z,50.910721
2022-08-20T04:25:59.494Z,50.910732
2022-08-20T04:26:59.522Z,50.910675
2022-08-20T04:27:59.490Z,50.910664
2022-08-20T04:28:59.475Z,50.910744
2022-08-20T04:29:59.451Z,50.910721
2022-08-20T04:30:59.449Z,50.910774
2022-08-20T04:31:59.432Z,50.910748
2022-08-20T04:32:59.418Z,50.910721
2022-08-20T04:33:59.433Z,50.910759
2022-08-20T04:34:59.403Z,50.910618
2022-08-20T04:35:59.400Z,50.910709
2022-08-20T04:36:59.391Z,50.910721
2022-08-20T04:37:59.376Z,50.910725
2022-08-20T04:38:59.379Z,50.910744
2022-08-20T04:39:59.420Z,50.910725
2022-08-20T04:40:59.350Z,50.910694
2022-08-20T04:41:59.338Z,50.910660
2022-08-20T04:42:59.331Z,50.910702
2022-08-20T04:43:59.327Z,50.910690
2022-08-20T04:44:59.403Z,50.910686
2022-08-20T04:45:59.298Z,50.910728
2022-08-20T04:46:59.285Z,50.910873
2022-08-20T04:47:59.283Z,50.910843
2022-08-20T04:48:59.281Z,50.910778
2022-08-20T04:49:59.258Z,50.910728
2022-08-20T04:50:59.247Z,50.910686
2022-08-20T04:51:59.240Z,50.910717
2022-08-20T04:52:59.234Z,50.910736
2022-08-20T04:53:59.288Z,50.910812
2022-08-20T04:54:59.206Z,50.910854
2022-08-20T04:55:59.203Z,50.910789
2022-08-20T04:56:59.196Z,50.910713
2022-08-20T04:57:59.178Z,50.910736
2022-08-20T04:58:59.286Z,50.910759
2022-08-20T04:59:59.622Z,50.910736
2022-08-20T05:01:01.338Z,50.910713
2022-08-20T05:01:59.138Z,50.910671
2022-08-20T05:02:59.124Z,50.910694
2022-08-20T05:03:59.133Z,50.910831
2022-08-20T05:04:59.104Z,50.910664
2022-08-20T05:05:59.101Z,50.910694
2022-08-20T05:06:59.087Z,50.910717
2022-08-20T05:07:59.077Z,50.910652
2022-08-20T05:08:59.083Z,50.910748
2022-08-20T05:09:59.056Z,50.910805
2022-08-20T05:11:01.207Z,50.910801
2022-08-20T05:12:00.039Z,50.910667
2022-08-20T05:12:59.036Z,50.910759
2022-08-20T05:13:59.051Z,50.910648
2022-08-20T05:14:59.083Z,50.910645
2022-08-20T05:15:59.020Z,50.910728
2022-08-20T05:16:58.987Z,50.910637
2022-08-20T05:17:58.986Z,50.910774
2022-08-20T05:18:59.081Z,50.910709
2022-08-20T05:19:58.957Z,50.910706
2022-08-20T05:20:58.947Z,50.910763
2022-08-20T05:21:58.939Z,50.910713
2022-08-20T05:22:58.928Z,50.910782
2022-08-20T05:23:58.934Z,50.910759
2022-08-20T05:24:58.918Z,50.910763
2022-08-20T05:25:58.934Z,50.910721
2022-08-20T05:26:58.907Z,50.910736
2022-08-20T05:27:58.926Z,50.910713
2022-08-20T05:28:59.535Z,50.910698
2022-08-20T05:29:58.864Z,50.910728
2022-08-20T05:30:58.842Z,50.910816
2022-08-20T05:31:58.843Z,50.910709
2022-08-20T05:32:58.831Z,50.910683
2022-08-20T05:33:59.195Z,50.910759
2022-08-20T05:34:58.807Z,50.910648
2022-08-20T05:35:58.812Z,50.910694
2022-08-20T05:36:58.789Z,50.910717
2022-08-20T05:37:58.790Z,50.910801
2022-08-20T05:38:58.791Z,50.910732
2022-08-20T05:39:58.807Z,50.910706
2022-08-20T05:40:58.757Z,50.910698
2022-08-20T05:41:58.745Z,50.910686
2022-08-20T05:42:58.756Z,50.910725
2022-08-20T05:43:58.753Z,50.910786
2022-08-20T05:44:58.732Z,50.910763
2022-08-20T05:45:58.714Z,50.910767
2022-08-20T05:46:58.697Z,50.910900
2022-08-20T05:47:58.869Z,50.910709
2022-08-20T05:48:59.376Z,50.910702
2022-08-20T05:49:58.671Z,50.910683
2022-08-20T05:50:58.658Z,50.910706
2022-08-20T05:51:58.659Z,50.910713
2022-08-20T05:52:58.639Z,50.910717
2022-08-20T05:53:59.753Z,50.910740
2022-08-20T05:54:58.636Z,50.910748
2022-08-20T05:55:58.615Z,50.910793
2022-08-20T05:56:58.597Z,50.910774
2022-08-20T05:57:58.600Z,50.910782
2022-08-20T05:58:58.597Z,50.910755
2022-08-20T05:59:58.579Z,50.910789
2022-08-20T06:00:58.624Z,50.910751
2022-08-20T06:01:58.551Z,50.910713
2022-08-20T06:02:58.546Z,50.910793
2022-08-20T06:03:58.555Z,50.910759
2022-08-20T06:04:58.525Z,50.910698
2022-08-20T06:05:58.520Z,50.910690
2022-08-20T06:06:58.504Z,50.910694
2022-08-20T06:08:07.752Z,50.910759
2022-08-20T06:08:59.503Z,50.910786
2022-08-20T06:09:58.485Z,50.910831
2022-08-20T06:10:58.468Z,50.910725
2022-08-20T06:11:59.163Z,50.910778
2022-08-20T06:12:58.447Z,50.910751
2022-08-20T06:13:58.454Z,50.910789
2022-08-20T06:14:58.426Z,50.910778
2022-08-20T06:15:58.435Z,50.910755
2022-08-20T06:16:59.148Z,50.910744
2022-08-20T06:17:58.750Z,50.910698
2022-08-20T06:18:58.565Z,50.910706
2022-08-20T06:19:58.382Z,50.910698
2022-08-20T06:20:58.371Z,50.910728
2022-08-20T06:21:58.359Z,50.910702
2022-08-20T06:22:58.347Z,50.910717
2022-08-20T06:24:00.988Z,50.910725
2022-08-20T06:24:58.336Z,50.910690
2022-08-20T06:25:58.357Z,50.910759
2022-08-20T06:26:58.309Z,50.910683
2022-08-20T06:27:58.495Z,50.910694
2022-08-20T06:28:58.416Z,50.910698
2022-08-20T06:29:58.287Z,50.910698
2022-08-20T06:30:58.274Z,50.910706
2022-08-20T06:31:58.267Z,50.910690
2022-08-20T06:32:58.272Z,50.910675
2022-08-20T06:33:58.260Z,50.910671
2022-08-20T06:34:58.236Z,50.910698
2022-08-20T06:35:58.224Z,50.910721
2022-08-20T06:36:58.214Z,50.910675
2022-08-20T06:37:58.364Z,50.910706
2022-08-20T06:38:58.207Z,50.910679
2022-08-20T06:39:58.263Z,50.910686
2022-08-20T06:40:58.180Z,50.910805
2022-08-20T06:41:58.190Z,50.910744
2022-08-20T06:42:58.160Z,50.910709
2022-08-20T06:43:58.147Z,50.910675
2022-08-20T06:44:58.147Z,50.910713
2022-08-20T06:45:58.127Z,50.910648
2022-08-20T06:46:58.112Z,50.910652
2022-08-20T06:47:58.346Z,50.910652
2022-08-20T06:48:58.119Z,50.910736
2022-08-20T06:49:58.105Z,50.910778
2022-08-20T06:50:58.102Z,50.910793
2022-08-20T06:51:58.077Z,50.910725
2022-08-20T06:52:58.060Z,50.910789
2022-08-20T06:53:58.116Z,50.910660
2022-08-20T06:54:58.056Z,50.910694
2022-08-20T06:55:58.037Z,50.910725
2022-08-20T06:56:58.022Z,50.910690
2022-08-20T06:57:58.048Z,50.910637
2022-08-20T06:58:58.004Z,50.910637
2022-08-20T06:59:58.010Z,50.910736
2022-08-20T07:01:01.083Z,50.910728
2022-08-20T07:01:57.975Z,50.910690
2022-08-20T07:02:58.153Z,50.910610
2022-08-20T07:03:57.958Z,50.910580
2022-08-20T07:04:57.964Z,50.910686
2022-08-20T07:05:57.942Z,50.910606
2022-08-20T07:06:57.925Z,50.910694
2022-08-20T07:07:57.912Z,50.910713
2022-08-20T07:08:57.906Z,50.910690
2022-08-20T07:09:57.916Z,50.910664
2022-08-20T07:10:57.886Z,50.910622
2022-08-20T07:11:57.881Z,50.910641
2022-08-20T07:12:58.085Z,50.910667
2022-08-20T07:13:57.869Z,50.910683
2022-08-20T07:14:57.856Z,50.910706
2022-08-20T07:15:57.845Z,50.910702
2022-08-20T07:16:57.823Z,50.910698
2022-08-20T07:18:01.195Z,50.910671
2022-08-20T07:18:57.808Z,50.910614
2022-08-20T07:19:57.824Z,50.910686
2022-08-20T07:20:57.837Z,50.910671
2022-08-20T07:21:57.785Z,50.910664
2022-08-20T07:22:58.110Z,50.910645
2022-08-20T07:23:57.765Z,50.910645
2022-08-20T07:24:57.769Z,50.910599
2022-08-20T07:25:57.745Z,50.910675
2022-08-20T07:26:57.731Z,50.910671
2022-08-20T07:27:57.728Z,50.910717
2022-08-20T07:28:57.718Z,50.910641
2022-08-20T07:29:57.704Z,50.910645
2022-08-20T07:30:57.924Z,50.910641
2022-08-20T07:31:57.685Z,50.910656
2022-08-20T07:32:57.967Z,50.910641
2022-08-20T07:33:57.661Z,50.910690
2022-08-20T07:34:57.652Z,50.910706
2022-08-20T07:35:57.666Z,50.910698
2022-08-20T07:36:57.637Z,50.910828
2022-08-20T07:37:57.639Z,50.910831
2022-08-20T07:38:57.618Z,50.910820
2022-08-20T07:39:57.671Z,50.910843
2022-08-20T07:40:57.704Z,50.910793
2022-08-20T07:41:57.591Z,50.910812
2022-08-20T07:42:57.811Z,50.910759
2022-08-20T07:43:57.568Z,50.910740
2022-08-20T07:44:57.552Z,50.910748
2022-08-20T07:45:57.567Z,50.910725
2022-08-20T07:46:57.531Z,50.910736
2022-08-20T07:47:57.552Z,50.910721
2022-08-20T07:48:57.524Z,50.910744
2022-08-20T07:49:57.513Z,50.910713
2022-08-20T07:50:57.516Z,50.910706
2022-08-20T07:51:57.495Z,50.910763
2022-08-20T07:52:57.597Z,50.910744
2022-08-20T07:53:57.483Z,50.910751
2022-08-20T07:54:57.467Z,50.910793
2022-08-20T07:55:59.062Z,50.910786
2022-08-20T07:56:57.447Z,50.910740
2022-08-20T07:57:57.438Z,50.910744
2022-08-20T07:58:57.426Z,50.910713
2022-08-20T07:59:57.423Z,50.910728
2022-08-20T08:00:57.450Z,50.910713
2022-08-20T08:01:57.409Z,50.910698
2022-08-20T08:02:57.504Z,50.910709
2022-08-20T08:03:57.385Z,50.910740
2022-08-20T08:04:57.369Z,50.910728
2022-08-20T08:05:57.377Z,50.910690
2022-08-20T08:06:57.353Z,50.910679
2022-08-20T08:07:57.355Z,50.910667
2022-08-20T08:08:57.329Z,50.910664
2022-08-20T08:09:57.325Z,50.910675
2022-08-20T08:10:57.333Z,50.910637
2022-08-20T08:11:57.304Z,50.910549
2022-08-20T08:12:57.430Z,50.910549
2022-08-20T08:13:57.285Z,50.910603
2022-08-20T08:14:57.273Z,50.910652
2022-08-20T08:15:57.282Z,50.910706
2022-08-20T08:16:57.274Z,50.910717
2022-08-20T08:17:57.281Z,50.910778
2022-08-20T08:18:57.233Z,50.910725
2022-08-20T08:19:57.231Z,50.910717
2022-08-20T08:20:57.596Z,50.910706
2022-08-20T08:21:57.210Z,50.910717
2022-08-20T08:22:57.330Z,50.910709
2022-08-20T08:23:57.199Z,50.910725
2022-08-20T08:24:57.789Z,50.910717
2022-08-20T08:25:57.190Z,50.910713
2022-08-20T08:26:57.164Z,50.910713
2022-08-20T08:27:57.163Z,50.910751
2022-08-20T08:28:57.144Z,50.910763
2022-08-20T08:29:57.138Z,50.910725
2022-08-20T08:30:57.133Z,50.910694
2022-08-20T08:31:57.115Z,50.910732
2022-08-20T08:32:57.211Z,50.910782
2022-08-20T08:33:57.097Z,50.910732
2022-08-20T08:34:57.092Z,50.910748
2022-08-20T08:35:57.088Z,50.910679
2022-08-20T08:36:57.068Z,50.910591
2022-08-20T08:37:57.056Z,50.910717
2022-08-20T08:38:57.043Z,50.910625
2022-08-20T08:39:57.091Z,50.910599
2022-08-20T08:40:59.858Z,50.910633
2022-08-20T08:41:57.024Z,50.910580
2022-08-20T08:42:57.103Z,50.910595
2022-08-20T08:43:57.005Z,50.910557
2022-08-20T08:44:56.998Z,50.910595
2022-08-20T08:45:56.999Z,50.910606
2022-08-20T08:46:56.973Z,50.910721
2022-08-20T08:47:56.965Z,50.910675
2022-08-20T08:48:56.960Z,50.910675
2022-08-20T08:49:56.952Z,50.910656
2022-08-20T08:50:56.949Z,50.910679
2022-08-20T08:51:56.948Z,50.910706
2022-08-20T08:52:57.025Z,50.910686
2022-08-20T08:53:56.916Z,50.910664
2022-08-20T08:54:56.907Z,50.910706
2022-08-20T08:55:56.911Z,50.910755
2022-08-20T08:56:56.883Z,50.910652
2022-08-20T08:57:56.886Z,50.910591
2022-08-20T08:58:56.861Z,50.910583
2022-08-20T09:00:03.525Z,50.910622
2022-08-20T09:01:02.038Z,50.910610
2022-08-20T09:01:58.021Z,50.910591
2022-08-20T09:02:57.067Z,50.910599
2022-08-20T09:03:56.812Z,50.910652
2022-08-20T09:04:56.800Z,50.910664
2022-08-20T09:05:57.148Z,50.910625
2022-08-20T09:06:56.779Z,50.910610
2022-08-20T09:07:56.772Z,50.910648
2022-08-20T09:08:56.765Z,50.910648
2022-08-20T09:09:56.787Z,50.910595
2022-08-20T09:10:56.740Z,50.910645
2022-08-20T09:11:56.745Z,50.910675
2022-08-20T09:12:56.785Z,50.910698
2022-08-20T09:13:56.713Z,50.910664
2022-08-20T09:14:56.699Z,50.910652
2022-08-20T09:15:56.710Z,50.910664
2022-08-20T09:16:56.682Z,50.910675
2022-08-20T09:17:56.778Z,50.910660
2022-08-20T09:18:56.663Z,50.910660
2022-08-20T09:19:56.654Z,50.910667
2022-08-20T09:20:56.658Z,50.910603
2022-08-20T09:21:56.632Z,50.910610
2022-08-20T09:22:56.757Z,50.910717
2022-08-20T09:23:56.612Z,50.910675
2022-08-20T09:24:56.603Z,50.910683
2022-08-20T09:25:56.596Z,50.910713
2022-08-20T09:26:56.601Z,50.910660
2022-08-20T09:27:56.571Z,50.910709
2022-08-20T09:28:56.567Z,50.910732
2022-08-20T09:29:56.553Z,50.910698
2022-08-20T09:30:56.548Z,50.910675
2022-08-20T09:31:56.551Z,50.910721
2022-08-20T09:32:56.644Z,50.910683
2022-08-20T09:33:56.512Z,50.910656
2022-08-20T09:34:56.567Z,50.910679
2022-08-20T09:35:56.495Z,50.910686
2022-08-20T09:36:56.505Z,50.910694
2022-08-20T09:37:56.559Z,50.910656
2022-08-20T09:38:56.461Z,50.910652
2022-08-20T09:39:56.490Z,50.910645
2022-08-20T09:40:56.471Z,50.910702
2022-08-20T09:41:56.450Z,50.910683
2022-08-20T09:42:56.610Z,50.910706
2022-08-20T09:43:56.422Z,50.910728
2022-08-20T09:44:56.416Z,50.910740
2022-08-20T09:45:56.418Z,50.910675
2022-08-20T09:46:56.410Z,50.910686
2022-08-20T09:47:57.178Z,50.910698
2022-08-20T09:48:56.383Z,50.910683
2022-08-20T09:49:56.359Z,50.910702
2022-08-20T09:50:56.358Z,50.910702
2022-08-20T09:51:56.599Z,50.910694
2022-08-20T09:52:56.340Z,50.910698
2022-08-20T09:53:57.280Z,50.910713
2022-08-20T09:54:56.315Z,50.910702
2022-08-20T09:55:56.306Z,50.910835
2022-08-20T09:56:56.321Z,50.910725
2022-08-20T09:57:56.459Z,50.910778
2022-08-20T09:58:58.953Z,50.910782
2022-08-20T09:59:57.265Z,50.910755
2022-08-20T10:00:56.260Z,50.910748
2022-08-20T10:01:56.266Z,50.910774
2022-08-20T10:02:56.239Z,50.910713
2022-08-20T10:03:56.234Z,50.910744
2022-08-20T10:04:56.228Z,50.910755
2022-08-20T10:05:56.207Z,50.910667
2022-08-20T10:06:56.211Z,50.910664
2022-08-20T10:07:56.385Z,50.910748
2022-08-20T10:08:56.181Z,50.910686
2022-08-20T10:09:56.165Z,50.910652
2022-08-20T10:10:56.162Z,50.910698
2022-08-20T10:11:56.166Z,50.910809
2022-08-20T10:12:56.139Z,50.910725
2022-08-20T10:13:56.129Z,50.910564
2022-08-20T10:14:56.121Z,50.910522
2022-08-20T10:15:56.109Z,50.910702
2022-08-20T10:16:56.238Z,50.910656
2022-08-20T10:17:56.199Z,50.910610
2022-08-20T10:18:56.087Z,50.910679
2022-08-20T10:19:56.075Z,50.910694
2022-08-20T10:20:56.075Z,50.910633
2022-08-20T10:21:56.075Z,50.910618
2022-08-20T10:22:56.055Z,50.910671
2022-08-20T10:23:56.039Z,50.910587
2022-08-20T10:24:56.027Z,50.910645
2022-08-20T10:25:56.017Z,50.910591
2022-08-20T10:26:56.027Z,50.910709
2022-08-20T10:27:56.100Z,50.910648
2022-08-20T10:28:55.991Z,50.910610
2022-08-20T10:29:55.983Z,50.910606
2022-08-20T10:30:55.981Z,50.910625
2022-08-20T10:31:55.980Z,50.910629
2022-08-20T10:32:55.958Z,50.910645
2022-08-20T10:33:55.940Z,50.910667
2022-08-20T10:34:55.940Z,50.910805
2022-08-20T10:35:59.866Z,50.910717
2022-08-20T10:36:55.942Z,50.910717
2022-08-20T10:37:56.054Z,50.910736
2022-08-20T10:38:55.899Z,50.910679
2022-08-20T10:39:55.927Z,50.910660
2022-08-20T10:40:55.886Z,50.910599
2022-08-20T10:41:55.868Z,50.910599
2022-08-20T10:42:55.881Z,50.910618
2022-08-20T10:43:55.853Z,50.910629
2022-08-20T10:44:55.844Z,50.910717
2022-08-20T10:45:55.831Z,50.910725
2022-08-20T10:46:57.228Z,50.910706
2022-08-20T10:47:56.073Z,50.910664
2022-08-20T10:48:55.803Z,50.910648
2022-08-20T10:49:55.790Z,50.910580
2022-08-20T10:50:55.802Z,50.910599
2022-08-20T10:51:55.771Z,50.910583
2022-08-20T10:52:55.785Z,50.910557
2022-08-20T10:53:55.758Z,50.910599
2022-08-20T10:54:55.753Z,50.910587
2022-08-20T10:55:55.736Z,50.910629
2022-08-20T10:56:55.738Z,50.910664
2022-08-20T10:57:55.938Z,50.910587
2022-08-20T10:58:55.709Z,50.910542
2022-08-20T10:59:55.702Z,50.910751
2022-08-20T11:00:55.698Z,50.910847
2022-08-20T11:01:55.722Z,50.910839
2022-08-20T11:02:55.694Z,50.910828
2022-08-20T11:03:55.671Z,50.910793
2022-08-20T11:04:55.661Z,50.910797
2022-08-20T11:05:55.660Z,50.910824
2022-08-20T11:06:55.638Z,50.910824
2022-08-20T11:07:56.874Z,50.910828
2022-08-20T11:08:57.008Z,50.910789
2022-08-20T11:09:55.643Z,50.910744
2022-08-20T11:10:55.607Z,50.910812
2022-08-20T11:11:55.597Z,50.910767
2022-08-20T11:12:55.642Z,50.910805
2022-08-20T11:13:55.575Z,50.910862
2022-08-20T11:14:55.568Z,50.910812
2022-08-20T11:15:55.618Z,50.910858
2022-08-20T11:16:55.553Z,50.910881
2022-08-20T11:17:55.783Z,50.910778
2022-08-20T11:18:55.676Z,50.910854
2022-08-20T11:19:55.524Z,50.910892
2022-08-20T11:20:55.515Z,50.910942
2022-08-20T11:21:55.520Z,50.910995
2022-08-20T11:22:55.524Z,50.910889
2022-08-20T11:23:55.484Z,50.910816